createdAt,value
2019-04-11T00:01:06.000Z,16.40
2019-04-11T00:03:36.162Z,16.40
2019-04-11T00:06:05.782Z,16.40
2019-04-11T00:08:35.807Z,16.40
2019-04-11T00:11:06.783Z,16.40
2019-04-11T00:13:36.590Z,16.40
2019-04-11T00:16:06.930Z,16.40
2019-04-11T00:18:37.041Z,16.30
2019-04-11T00:21:06.834Z,16.40
2019-04-11T00:23:36.937Z,16.30
2019-04-11T00:26:06.668Z,16.30
2019-04-11T00:28:37.406Z,16.40
2019-04-11T00:31:08.455Z,16.30
2019-04-11T00:33:38.532Z,16.30
2019-04-11T00:36:10.357Z,16.30
2019-04-11T00:38:40.483Z,16.30
2019-04-11T00:41:10.133Z,16.30
2019-04-11T00:43:43.461Z,16.30
2019-04-11T00:46:12.613Z,16.30
2019-04-11T00:48:42.225Z,16.20
2019-04-11T00:51:11.916Z,16.30
2019-04-11T00:53:44.410Z,16.20
2019-04-11T00:56:15.565Z,16.20
2019-04-11T00:58:45.850Z,16.20
2019-04-11T01:01:15.706Z,16.20
2019-04-11T01:03:45.802Z,16.20
2019-04-11T01:06:16.196Z,16.20
2019-04-11T01:08:46.336Z,16.20
2019-04-11T01:11:16.149Z,16.10
2019-04-11T01:13:50.924Z,16.20
2019-04-11T01:16:28.423Z,16.10
2019-04-11T01:18:58.316Z,16.10
2019-04-11T01:21:28.579Z,16.10
2019-04-11T01:23:58.107Z,16.10
2019-04-11T01:26:28.241Z,16.10
2019-04-11T01:28:58.799Z,16.10
2019-04-11T01:31:30.620Z,16.10
2019-04-11T01:34:00.243Z,16.00
2019-04-11T01:36:29.852Z,16.00
2019-04-11T01:39:01.554Z,16.00
2019-04-11T01:41:32.825Z,16.00
2019-04-11T01:44:05.503Z,16.00
2019-04-11T01:46:34.042Z,16.00
2019-04-11T01:49:19.785Z,16.00
2019-04-11T01:51:49.968Z,16.00
2019-04-11T01:54:19.613Z,15.90
2019-04-11T01:56:49.507Z,15.90
2019-04-11T01:59:19.796Z,15.90
2019-04-11T02:01:57.302Z,15.90
2019-04-11T02:04:32.154Z,15.90
2019-04-11T02:07:02.529Z,15.90
2019-04-11T02:09:32.722Z,15.90
2019-04-11T02:12:02.300Z,15.80
2019-04-11T02:14:31.940Z,15.80
2019-04-11T02:17:01.635Z,15.80
2019-04-11T02:19:32.197Z,15.80
2019-04-11T02:22:28.487Z,15.80
2019-04-11T02:25:10.928Z,15.70
2019-04-11T02:27:40.546Z,15.70
2019-04-11T02:30:13.502Z,15.60
2019-04-11T02:32:45.453Z,15.60
2019-04-11T02:35:15.426Z,15.60
2019-04-11T02:37:47.750Z,15.70
2019-04-11T02:40:17.779Z,15.70
2019-04-11T02:42:49.709Z,15.60
2019-04-11T02:45:30.698Z,15.60
2019-04-11T02:47:51.780Z,15.60
2019-04-11T02:50:24.253Z,15.50
2019-04-11T02:52:53.218Z,15.60
2019-04-11T02:55:22.954Z,15.50
2019-04-11T02:57:54.197Z,15.50
2019-04-11T03:00:24.445Z,15.50
2019-04-11T03:02:56.779Z,15.60
2019-04-11T03:05:26.856Z,15.50
2019-04-11T03:07:58.382Z,15.50
2019-04-11T03:10:31.281Z,15.50
2019-04-11T03:13:00.876Z,15.50
2019-04-11T03:15:46.336Z,15.50
2019-04-11T03:18:06.640Z,15.50
2019-04-11T03:20:40.843Z,15.40
2019-04-11T03:23:08.037Z,15.50
2019-04-11T03:25:36.483Z,15.40
2019-04-11T03:28:11.217Z,15.40
2019-04-11T03:30:54.091Z,15.40
2019-04-11T03:38:36.678Z,15.40
2019-04-11T03:41:00.372Z,15.40
2019-04-11T03:43:28.286Z,15.30
2019-04-11T03:46:05.077Z,15.30
2019-04-11T03:48:29.127Z,15.30
2019-04-11T03:50:49.041Z,15.30
2019-04-11T03:53:20.046Z,15.30
2019-04-11T03:55:51.659Z,15.30
2019-04-11T03:58:23.720Z,15.30
2019-04-11T04:00:56.877Z,15.30
2019-04-11T04:03:25.203Z,15.30
2019-04-11T04:05:57.262Z,15.30
2019-04-11T04:08:28.809Z,15.30
2019-04-11T04:11:16.815Z,15.30
2019-04-11T04:13:55.667Z,15.20
2019-04-11T04:16:48.213Z,15.20
2019-04-11T04:19:33.256Z,15.20
2019-04-11T04:22:11.021Z,15.20
2019-04-11T04:24:42.627Z,15.20
2019-04-11T04:27:13.153Z,15.20
2019-04-11T04:29:47.333Z,15.20
2019-04-11T04:32:16.213Z,15.20
2019-04-11T04:34:46.418Z,15.10
2019-04-11T04:37:18.113Z,15.10
2019-04-11T04:39:51.609Z,15.10
2019-04-11T04:42:27.437Z,15.10
2019-04-11T04:44:51.281Z,15.10
2019-04-11T04:47:26.499Z,15.10
2019-04-11T04:49:52.424Z,15.10
2019-04-11T04:52:25.185Z,15.10
2019-04-11T04:54:55.589Z,15.10
2019-04-11T04:57:26.752Z,15.10
2019-04-11T04:59:57.882Z,15.00
2019-04-11T05:02:29.988Z,15.00
2019-04-11T05:05:01.419Z,15.00
2019-04-11T05:07:34.606Z,15.00
2019-04-11T05:10:03.266Z,15.10
2019-04-11T05:12:34.600Z,15.00
2019-04-11T05:15:05.118Z,15.00
2019-04-11T05:17:35.999Z,15.00
2019-04-11T05:20:06.954Z,15.00
2019-04-11T05:22:37.257Z,15.00
2019-04-11T05:25:08.476Z,15.00
2019-04-11T05:27:39.752Z,15.00
2019-04-11T05:30:11.167Z,15.00
2019-04-11T05:32:41.731Z,15.00
2019-04-11T05:35:11.833Z,15.00
2019-04-11T05:37:41.416Z,15.00
2019-04-11T05:40:11.023Z,15.00
2019-04-11T05:42:41.696Z,15.00
2019-04-11T05:45:17.337Z,14.90
2019-04-11T05:47:43.504Z,14.90
2019-04-11T05:50:22.237Z,14.90
2019-04-11T05:52:52.476Z,14.90
2019-04-11T05:55:23.891Z,14.90
2019-04-11T05:57:54.475Z,14.90
2019-04-11T06:00:46.695Z,14.90
2019-04-11T06:03:17.551Z,14.90
2019-04-11T06:06:06.530Z,14.80
2019-04-11T06:08:37.840Z,14.80
2019-04-11T06:11:28.449Z,14.80
2019-04-11T06:14:17.228Z,14.90
2019-04-11T06:16:53.869Z,14.80
2019-04-11T06:19:50.037Z,14.80
2019-04-11T06:22:21.297Z,14.80
2019-04-11T06:25:11.267Z,14.80
2019-04-11T06:27:49.835Z,14.90
2019-04-11T06:30:42.313Z,14.90
2019-04-11T06:33:28.849Z,14.90
2019-04-11T06:36:18.209Z,14.90
2019-04-11T06:38:51.316Z,14.90
2019-04-11T06:41:55.321Z,14.90
2019-04-11T06:44:39.722Z,14.90
2019-04-11T06:47:40.916Z,14.90
2019-04-11T06:50:29.887Z,14.90
2019-04-11T06:53:00.290Z,14.90
2019-04-11T06:55:44.709Z,14.90
2019-04-11T06:58:25.518Z,15.00
2019-04-11T07:01:09.691Z,15.00
2019-04-11T07:03:45.242Z,15.00
2019-04-11T07:06:24.538Z,15.00
2019-04-11T07:09:03.782Z,15.00
2019-04-11T07:11:50.689Z,15.10
2019-04-11T07:14:43.338Z,15.10
2019-04-11T07:17:31.780Z,15.10
2019-04-11T07:20:37.767Z,15.10
2019-04-11T07:23:26.441Z,15.10
2019-04-11T07:26:12.186Z,15.10
2019-04-11T07:29:04.552Z,15.10
2019-04-11T07:31:46.246Z,15.20
2019-04-11T07:34:37.779Z,15.20
2019-04-11T07:37:30.105Z,15.20
2019-04-11T07:40:26.759Z,15.20
2019-04-11T07:43:13.554Z,15.20
2019-04-11T07:46:00.695Z,15.30
2019-04-11T07:48:44.702Z,15.30
2019-04-11T07:51:40.616Z,15.30
2019-04-11T07:54:25.949Z,15.30
2019-04-11T07:57:02.032Z,15.40
2019-04-11T07:59:51.274Z,15.40
2019-04-11T08:02:41.405Z,15.40
2019-04-11T08:05:30.327Z,15.50
2019-04-11T08:08:30.335Z,15.50
2019-04-11T08:11:19.805Z,15.50
2019-04-11T08:14:12.551Z,15.50
2019-04-11T08:17:25.447Z,15.50
2019-04-11T08:20:08.052Z,15.60
2019-04-11T08:22:41.364Z,15.60
2019-04-11T08:25:31.443Z,15.60
2019-04-11T08:28:07.477Z,15.70
2019-04-11T08:30:55.177Z,15.70
2019-04-11T08:33:26.753Z,15.70
2019-04-11T08:36:15.787Z,15.70
2019-04-11T08:38:46.712Z,15.80
2019-04-11T08:41:38.176Z,15.80
2019-04-11T08:44:20.734Z,15.80
2019-04-11T08:46:55.980Z,15.90
2019-04-11T08:49:35.782Z,15.90
2019-04-11T08:52:11.803Z,15.90
2019-04-11T08:55:10.395Z,15.90
2019-04-11T08:57:44.474Z,16.00
2019-04-11T09:00:53.127Z,16.00
2019-04-11T09:04:02.178Z,16.00
2019-04-11T09:06:32.501Z,16.10
2019-04-11T09:09:36.770Z,16.10
2019-04-11T09:12:10.590Z,16.10
2019-04-11T09:15:12.649Z,16.10
2019-04-11T09:18:10.751Z,16.10
2019-04-11T09:20:58.066Z,16.10
2019-04-11T09:23:28.141Z,16.20
2019-04-11T09:26:23.602Z,16.20
2019-04-11T09:28:56.380Z,16.20
2019-04-11T09:31:45.691Z,16.20
2019-04-11T09:34:44.162Z,16.30
2019-04-11T09:37:33.789Z,16.30
2019-04-11T09:40:24.094Z,16.30
2019-04-11T09:43:22.182Z,16.40
2019-04-11T09:46:14.525Z,16.40
2019-04-11T09:49:06.750Z,16.40
2019-04-11T09:52:00.532Z,16.50
2019-04-11T09:54:50.501Z,16.50
2019-04-11T09:57:26.914Z,16.40
2019-04-11T10:00:16.434Z,16.50
2019-04-11T10:03:15.317Z,16.50
2019-04-11T10:06:07.489Z,16.60
2019-04-11T10:09:02.288Z,16.60
2019-04-11T10:11:55.362Z,16.60
2019-04-11T10:14:29.306Z,16.60
2019-04-11T10:17:17.314Z,16.70
2019-04-11T10:19:54.157Z,16.70
2019-04-11T10:22:42.387Z,16.70
2019-04-11T10:25:32.063Z,16.70
2019-04-11T10:28:21.744Z,16.80
2019-04-11T10:31:20.406Z,16.90
2019-04-11T10:34:06.254Z,16.80
2019-04-11T10:37:01.351Z,16.90
2019-04-11T10:39:53.918Z,16.90
2019-04-11T10:42:26.628Z,16.90
2019-04-11T10:45:25.259Z,16.90
2019-04-11T10:48:01.226Z,16.90
2019-04-11T10:50:50.618Z,17.00
2019-04-11T10:53:22.953Z,17.00
2019-04-11T10:56:30.566Z,17.00
2019-04-11T10:59:02.438Z,17.10
2019-04-11T11:01:51.106Z,17.10
2019-04-11T11:04:46.293Z,17.10
2019-04-11T11:07:20.230Z,17.20
2019-04-11T11:10:09.232Z,17.20
2019-04-11T11:13:18.023Z,17.20
2019-04-11T11:15:52.664Z,17.20
2019-04-11T11:19:03.648Z,17.20
2019-04-11T11:21:09.542Z,17.20
2019-04-11T11:24:11.957Z,17.20
2019-04-11T11:26:44.592Z,17.20
2019-04-11T11:29:45.485Z,17.20
2019-04-11T11:32:27.405Z,17.20
2019-04-11T11:35:15.518Z,17.20
2019-04-11T11:37:49.296Z,17.20
2019-04-11T11:40:40.538Z,17.30
2019-04-11T11:43:16.904Z,17.30
2019-04-11T11:46:04.421Z,17.40
2019-04-11T11:48:39.691Z,17.40
2019-04-11T11:51:29.948Z,17.40
2019-04-11T11:54:07.219Z,17.40
2019-04-11T11:56:40.312Z,17.40
2019-04-11T11:59:19.707Z,17.50
2019-04-11T12:01:52.793Z,17.50
2019-04-11T12:04:42.221Z,17.50
2019-04-11T12:07:14.676Z,17.50
2019-04-11T12:10:03.368Z,17.50
2019-04-11T12:12:51.938Z,17.50
2019-04-11T12:15:57.277Z,17.50
2019-04-11T12:18:55.505Z,17.50
2019-04-11T12:21:30.994Z,17.50
2019-04-11T12:24:19.590Z,17.60
2019-04-11T12:27:18.465Z,17.60
2019-04-11T12:30:09.556Z,17.60
2019-04-11T12:32:44.498Z,17.70
2019-04-11T12:35:32.620Z,17.60
2019-04-11T12:38:08.775Z,17.60
2019-04-11T12:40:56.572Z,17.70
2019-04-11T12:43:36.369Z,17.60
2019-04-11T12:46:29.810Z,17.60
2019-04-11T12:49:00.871Z,17.70
2019-04-11T12:51:58.648Z,17.60
2019-04-11T12:54:30.015Z,17.70
2019-04-11T12:57:21.550Z,17.70
2019-04-11T12:59:57.613Z,17.70
2019-04-11T13:02:52.418Z,17.70
2019-04-11T13:05:23.172Z,17.70
2019-04-11T13:08:10.661Z,17.70
2019-04-11T13:10:41.073Z,17.80
2019-04-11T13:13:27.091Z,17.80
2019-04-11T13:16:18.751Z,17.80
2019-04-11T13:19:10.698Z,17.80
2019-04-11T13:22:08.615Z,17.80
2019-04-11T13:25:06.360Z,17.80
2019-04-11T13:27:47.573Z,17.80
2019-04-11T13:30:35.094Z,17.80
2019-04-11T13:33:12.761Z,17.80
2019-04-11T13:36:04.274Z,17.80
2019-04-11T13:38:42.377Z,17.80
2019-04-11T13:41:30.075Z,17.80
2019-04-11T13:44:18.859Z,17.80
2019-04-11T13:47:06.581Z,17.90
2019-04-11T13:49:54.012Z,17.80
2019-04-11T13:52:43.059Z,17.90
2019-04-11T13:55:30.642Z,17.90
2019-04-11T13:58:18.416Z,17.90
2019-04-11T14:00:52.359Z,17.90
2019-04-11T14:03:44.195Z,17.90
2019-04-11T14:06:19.369Z,17.90
2019-04-11T14:09:20.340Z,17.90
2019-04-11T14:11:52.152Z,17.90
2019-04-11T14:14:40.862Z,17.90
2019-04-11T14:17:26.109Z,17.90
2019-04-11T14:20:29.567Z,18.00
2019-04-11T14:23:17.350Z,18.00
2019-04-11T14:26:04.976Z,18.00
2019-04-11T14:29:12.116Z,18.00
2019-04-11T14:31:54.011Z,18.00
2019-04-11T14:34:42.022Z,17.90
2019-04-11T14:37:38.463Z,17.90
2019-04-11T14:40:15.473Z,18.00
2019-04-11T14:42:59.207Z,18.00
2019-04-11T14:45:56.932Z,18.00
2019-04-11T14:48:42.247Z,18.00
2019-04-11T14:51:29.935Z,18.00
2019-04-11T14:54:18.395Z,18.00
2019-04-11T14:56:54.332Z,18.10
2019-04-11T14:59:54.187Z,18.00
2019-04-11T15:02:54.798Z,18.10
2019-04-11T15:05:40.163Z,18.10
2019-04-11T15:08:12.024Z,18.10
2019-04-11T15:11:09.682Z,18.10
2019-04-11T15:13:40.918Z,18.10
2019-04-11T15:16:29.671Z,18.10
2019-04-11T15:19:01.898Z,18.10
2019-04-11T15:22:08.817Z,18.20
2019-04-11T15:24:39.195Z,18.20
2019-04-11T15:27:26.746Z,18.20
2019-04-11T15:29:58.361Z,18.10
2019-04-11T15:32:53.117Z,18.10
2019-04-11T15:35:22.729Z,18.10
2019-04-11T15:38:10.501Z,18.10
2019-04-11T15:40:46.365Z,18.10
2019-04-11T15:43:42.081Z,18.10
2019-04-11T15:46:19.450Z,18.10
2019-04-11T15:49:19.647Z,18.10
2019-04-11T15:52:10.926Z,18.10
2019-04-11T15:54:58.374Z,18.10
2019-04-11T15:57:35.665Z,18.10
2019-04-11T16:00:30.688Z,18.10
2019-04-11T16:03:18.915Z,18.10
2019-04-11T16:06:19.522Z,18.00
2019-04-11T16:08:58.521Z,18.00
2019-04-11T16:11:53.506Z,18.00
2019-04-11T16:14:34.576Z,18.10
2019-04-11T16:17:35.547Z,18.00
2019-04-11T16:20:17.797Z,18.00
2019-04-11T16:23:05.561Z,18.00
2019-04-11T16:25:35.194Z,18.10
2019-04-11T16:28:29.831Z,18.10
2019-04-11T16:31:00.528Z,18.10
2019-04-11T16:33:49.193Z,18.00
2019-04-11T16:36:29.075Z,18.10
2019-04-11T16:39:13.431Z,18.10
2019-04-11T16:42:03.922Z,18.00
2019-04-11T16:44:55.993Z,18.10
2019-04-11T16:47:50.667Z,18.10
2019-04-11T16:50:20.275Z,18.00
2019-04-11T16:52:49.931Z,18.10
2019-04-11T16:55:21.142Z,18.00
2019-04-11T16:57:50.716Z,18.10
2019-04-11T17:00:21.191Z,18.10
2019-04-11T17:02:54.721Z,18.00
2019-04-11T17:05:24.017Z,18.10
2019-04-11T17:08:07.039Z,18.00
2019-04-11T17:10:57.522Z,18.00
2019-04-11T17:13:26.760Z,18.10
2019-04-11T17:15:59.856Z,18.00
2019-04-11T17:18:28.332Z,18.00
2019-04-11T17:20:58.072Z,18.00
2019-04-11T17:23:27.762Z,18.00
2019-04-11T17:25:57.402Z,18.00
2019-04-11T17:28:27.052Z,18.00
2019-04-11T17:30:56.671Z,18.00
2019-04-11T17:33:28.637Z,18.00
2019-04-11T17:36:01.913Z,18.00
2019-04-11T17:38:29.237Z,18.00
2019-04-11T17:40:58.938Z,18.00
2019-04-11T17:43:28.715Z,17.90
2019-04-11T17:45:58.356Z,17.90
2019-04-11T17:48:28.040Z,17.90
2019-04-11T17:50:59.262Z,17.90
2019-04-11T17:53:28.940Z,17.90
2019-04-11T17:56:00.167Z,17.90
2019-04-11T17:58:29.984Z,17.90
2019-04-11T18:01:05.164Z,17.80
2019-04-11T18:03:33.344Z,17.80
2019-04-11T18:06:03.078Z,17.90
2019-04-11T18:08:32.900Z,17.80
2019-04-11T18:11:02.695Z,17.80
2019-04-11T18:13:32.519Z,17.80
2019-04-11T18:16:02.360Z,17.80
2019-04-11T18:18:35.155Z,17.80
2019-04-11T18:21:07.350Z,17.80
2019-04-11T18:23:36.463Z,17.80
2019-04-11T18:26:06.410Z,17.80
2019-04-11T18:28:36.187Z,17.70
2019-04-11T18:31:06.141Z,17.70
2019-04-11T18:33:35.780Z,17.70
2019-04-11T18:36:05.537Z,17.70
2019-04-11T18:38:35.190Z,17.70
2019-04-11T18:41:04.864Z,17.60
2019-04-11T18:43:34.832Z,17.60
2019-04-11T18:46:05.891Z,17.60
2019-04-11T18:48:35.763Z,17.60
2019-04-11T18:51:07.223Z,17.60
2019-04-11T18:53:37.191Z,17.60
2019-04-11T18:56:06.904Z,17.60
2019-04-11T18:58:37.287Z,17.60
2019-04-11T19:01:09.214Z,17.60
2019-04-11T19:03:42.132Z,17.50
2019-04-11T19:06:27.237Z,17.50
2019-04-11T19:08:46.831Z,17.50
2019-04-11T19:11:16.570Z,17.50
2019-04-11T19:13:47.082Z,17.50
2019-04-11T19:16:17.861Z,17.50
2019-04-11T19:18:50.678Z,17.50
2019-04-11T19:21:21.302Z,17.50
2019-04-11T19:23:51.810Z,17.50
2019-04-11T19:26:22.976Z,17.40
2019-04-11T19:28:55.140Z,17.50
2019-04-11T19:31:27.693Z,17.40
2019-04-11T19:33:56.591Z,17.40
2019-04-11T19:36:26.609Z,17.40
2019-04-11T19:38:56.807Z,17.40
2019-04-11T19:41:26.879Z,17.40
2019-04-11T19:43:56.735Z,17.40
2019-04-11T19:46:26.703Z,17.40
2019-04-11T19:48:59.238Z,17.40
2019-04-11T19:51:29.606Z,17.30
2019-04-11T19:54:03.300Z,17.30
2019-04-11T19:56:37.488Z,17.30
2019-04-11T19:59:08.999Z,17.30
2019-04-11T20:01:39.025Z,17.30
2019-04-11T20:04:08.859Z,17.30
2019-04-11T20:06:38.767Z,17.30
2019-04-11T20:09:08.939Z,17.30
2019-04-11T20:11:40.210Z,17.30
2019-04-11T20:14:10.003Z,17.30
2019-04-11T20:16:42.749Z,17.20
2019-04-11T20:19:11.220Z,17.20
2019-04-11T20:21:40.973Z,17.20
2019-04-11T20:24:14.074Z,17.20
2019-04-11T20:26:42.210Z,17.20
2019-04-11T20:29:11.947Z,17.20
2019-04-11T20:31:42.627Z,17.20
2019-04-11T20:34:12.303Z,17.20
2019-04-11T20:36:43.298Z,17.20
2019-04-11T20:39:15.284Z,17.10
2019-04-11T20:41:44.467Z,17.10
2019-04-11T20:44:14.262Z,17.10
2019-04-11T20:46:43.939Z,17.10
2019-04-11T20:49:13.724Z,17.10
2019-04-11T20:51:43.447Z,17.10
2019-04-11T20:54:13.229Z,17.10
2019-04-11T20:56:43.379Z,17.10
2019-04-11T20:59:13.185Z,17.00
2019-04-11T21:01:42.859Z,17.00
2019-04-11T21:04:12.604Z,17.00
2019-04-11T21:06:42.346Z,17.00
2019-04-11T21:09:13.678Z,17.00
2019-04-11T21:11:43.255Z,17.00
2019-04-11T21:14:12.905Z,17.00
2019-04-11T21:16:42.515Z,17.00
2019-04-11T21:19:12.177Z,16.90
2019-04-11T21:21:43.411Z,16.90
2019-04-11T21:24:13.055Z,17.00
2019-04-11T21:26:42.695Z,16.90
2019-04-11T21:29:12.267Z,17.00
2019-04-11T21:31:42.020Z,16.90
2019-04-11T21:34:11.680Z,16.90
2019-04-11T21:36:41.370Z,16.90
2019-04-11T21:39:11.056Z,16.90
2019-04-11T21:41:40.652Z,16.80
2019-04-11T21:44:10.356Z,16.80
2019-04-11T21:46:42.054Z,16.80
2019-04-11T21:49:11.360Z,16.80
2019-04-11T21:51:42.248Z,16.80
2019-04-11T21:54:15.017Z,16.80
2019-04-11T21:56:43.953Z,16.80
2019-04-11T21:59:13.690Z,16.80
2019-04-11T22:01:43.314Z,16.80
2019-04-11T22:04:13.083Z,16.80
2019-04-11T22:06:48.415Z,16.70
2019-04-11T22:09:18.073Z,16.70
2019-04-11T22:11:47.934Z,16.70
2019-04-11T22:14:17.481Z,16.70
2019-04-11T22:16:47.175Z,16.70
2019-04-11T22:19:16.933Z,16.70
2019-04-11T22:21:46.605Z,16.70
2019-04-11T22:24:16.361Z,16.70
2019-04-11T22:26:50.140Z,16.60
2019-04-11T22:29:17.263Z,16.60
2019-04-11T22:31:46.820Z,16.60
2019-04-11T22:34:33.825Z,16.60
2019-04-11T22:37:03.393Z,16.60
2019-04-11T22:39:33.193Z,16.60
2019-04-11T22:42:02.929Z,16.60
2019-04-11T22:44:32.605Z,16.60
2019-04-11T22:47:02.362Z,16.50
2019-04-11T22:49:31.943Z,16.60
2019-04-11T22:52:02.533Z,16.50
2019-04-11T22:54:32.179Z,16.50
2019-04-11T22:57:01.735Z,16.50
2019-04-11T22:59:31.483Z,16.50
2019-04-11T23:02:29.104Z,16.50
2019-04-11T23:04:58.809Z,16.50
2019-04-11T23:07:28.494Z,16.50
2019-04-11T23:09:58.121Z,16.50
2019-04-11T23:12:27.714Z,16.50
2019-04-11T23:14:57.321Z,16.50
2019-04-11T23:17:26.949Z,16.40
2019-04-11T23:19:56.610Z,16.40
2019-04-11T23:22:26.229Z,16.40
2019-04-11T23:24:55.818Z,16.40
2019-04-11T23:27:25.418Z,16.40
2019-04-11T23:29:55.008Z,16.40
2019-04-11T23:32:26.241Z,16.40
2019-04-11T23:34:55.834Z,16.40
2019-04-11T23:37:25.531Z,16.30
2019-04-11T23:39:55.180Z,16.30
2019-04-11T23:42:24.819Z,16.30
2019-04-11T23:44:54.419Z,16.30
2019-04-11T23:47:24.027Z,16.40
2019-04-11T23:49:56.011Z,16.30
2019-04-11T23:52:26.813Z,16.30
2019-04-11T23:54:58.257Z,16.30
2019-04-11T23:57:28.875Z,16.30
2019-04-11T23:59:59.785Z,16.30
